sensor_id;sensor_type;location;lat;lon;timestamp;P1;durP1;ratioP1;P2;durP2;ratioP2
16472;SDS011;8347;52.486;13.432;2023-04-12T00:00:25;8.23;;;3.65;;
16472;SDS011;8347;52.486;13.432;2023-04-12T00:03:12;4.28;;;2.97;;
16472;SDS011;8347;52.486;13.432;2023-04-12T00:06:05;7.80;;;3.80;;
16472;SDS011;8347;52.486;13.432;2023-04-12T00:08:52;6.65;;;3.42;;
16472;SDS011;8347;52.486;13.432;2023-04-12T00:11:38;7.45;;;3.22;;
16472;SDS011;8347;52.486;13.432;2023-04-12T00:14:25;4.50;;;3.22;;
16472;SDS011;8347;52.486;13.432;2023-04-12T00:17:11;8.48;;;3.47;;
16472;SDS011;8347;52.486;13.432;2023-04-12T00:19:58;4.15;;;2.90;;
16472;SDS011;8347;52.486;13.432;2023-04-12T00:22:44;7.43;;;4.10;;
16472;SDS011;8347;52.486;13.432;2023-04-12T00:25:31;5.50;;;3.10;;
16472;SDS011;8347;52.486;13.432;2023-04-12T00:28:17;5.15;;;2.92;;
16472;SDS011;8347;52.486;13.432;2023-04-12T00:31:04;5.43;;;2.90;;
16472;SDS011;8347;52.486;13.432;2023-04-12T00:33:52;4.68;;;3.45;;
16472;SDS011;8347;52.486;13.432;2023-04-12T00:36:39;7.45;;;2.97;;
16472;SDS011;8347;52.486;13.432;2023-04-12T00:39:25;4.25;;;3.13;;
16472;SDS011;8347;52.486;13.432;2023-04-12T00:42:12;4.43;;;2.78;;
16472;SDS011;8347;52.486;13.432;2023-04-12T00:44:59;3.70;;;2.55;;
16472;SDS011;8347;52.486;13.432;2023-04-12T00:47:46;8.07;;;2.80;;
16472;SDS011;8347;52.486;13.432;2023-04-12T00:50:35;3.75;;;3.05;;
16472;SDS011;8347;52.486;13.432;2023-04-12T00:53:22;7.60;;;3.03;;
16472;SDS011;8347;52.486;13.432;2023-04-12T00:56:09;6.45;;;3.22;;
16472;SDS011;8347;52.486;13.432;2023-04-12T00:58:56;4.97;;;2.78;;
16472;SDS011;8347;52.486;13.432;2023-04-12T01:01:43;3.75;;;2.22;;
16472;SDS011;8347;52.486;13.432;2023-04-12T01:04:30;3.80;;;2.55;;
16472;SDS011;8347;52.486;13.432;2023-04-12T01:07:39;3.72;;;2.53;;
16472;SDS011;8347;52.486;13.432;2023-04-12T01:10:45;9.40;;;3.17;;
16472;SDS011;8347;52.486;13.432;2023-04-12T01:13:38;9.18;;;3.30;;
16472;SDS011;8347;52.486;13.432;2023-04-12T01:16:27;5.30;;;3.17;;
16472;SDS011;8347;52.486;13.432;2023-04-12T01:19:28;5.22;;;3.47;;
16472;SDS011;8347;52.486;13.432;2023-04-12T01:28:11;8.02;;;3.35;;
16472;SDS011;8347;52.486;13.432;2023-04-12T01:31:00;6.32;;;3.10;;
16472;SDS011;8347;52.486;13.432;2023-04-12T01:33:48;6.63;;;2.80;;
16472;SDS011;8347;52.486;13.432;2023-04-12T01:36:36;6.45;;;3.05;;
16472;SDS011;8347;52.486;13.432;2023-04-12T01:39:24;5.68;;;2.95;;
16472;SDS011;8347;52.486;13.432;2023-04-12T01:42:17;5.60;;;2.47;;
16472;SDS011;8347;52.486;13.432;2023-04-12T01:45:04;3.58;;;2.65;;
16472;SDS011;8347;52.486;13.432;2023-04-12T01:47:51;7.97;;;3.90;;
16472;SDS011;8347;52.486;13.432;2023-04-12T01:56:56;5.15;;;3.17;;
16472;SDS011;8347;52.486;13.432;2023-04-12T01:59:46;8.80;;;3.40;;
16472;SDS011;8347;52.486;13.432;2023-04-12T02:02:33;6.15;;;3.33;;
16472;SDS011;8347;52.486;13.432;2023-04-12T02:05:21;8.07;;;4.18;;
16472;SDS011;8347;52.486;13.432;2023-04-12T02:08:08;8.55;;;4.75;;
16472;SDS011;8347;52.486;13.432;2023-04-12T02:10:55;6.43;;;3.95;;
16472;SDS011;8347;52.486;13.432;2023-04-12T02:13:41;7.70;;;3.78;;
16472;SDS011;8347;52.486;13.432;2023-04-12T02:16:28;9.80;;;3.80;;
16472;SDS011;8347;52.486;13.432;2023-04-12T02:22:08;7.97;;;3.63;;
16472;SDS011;8347;52.486;13.432;2023-04-12T02:24:55;8.10;;;3.45;;
16472;SDS011;8347;52.486;13.432;2023-04-12T02:27:45;5.63;;;3.78;;
16472;SDS011;8347;52.486;13.432;2023-04-12T02:30:33;10.00;;;3.90;;
16472;SDS011;8347;52.486;13.432;2023-04-12T02:33:20;9.30;;;3.63;;
16472;SDS011;8347;52.486;13.432;2023-04-12T02:36:08;5.43;;;3.67;;
16472;SDS011;8347;52.486;13.432;2023-04-12T02:38:55;7.32;;;3.67;;
16472;SDS011;8347;52.486;13.432;2023-04-12T02:41:43;8.80;;;3.88;;
16472;SDS011;8347;52.486;13.432;2023-04-12T02:44:31;8.02;;;4.13;;
16472;SDS011;8347;52.486;13.432;2023-04-12T02:47:31;8.57;;;4.10;;
16472;SDS011;8347;52.486;13.432;2023-04-12T02:50:20;6.18;;;3.83;;
16472;SDS011;8347;52.486;13.432;2023-04-12T02:53:14;8.38;;;3.80;;
16472;SDS011;8347;52.486;13.432;2023-04-12T02:56:04;4.10;;;3.30;;
16472;SDS011;8347;52.486;13.432;2023-04-12T02:58:51;4.97;;;3.22;;
16472;SDS011;8347;52.486;13.432;2023-04-12T03:01:53;9.27;;;4.20;;
16472;SDS011;8347;52.486;13.432;2023-04-12T03:04:44;11.20;;;5.25;;
16472;SDS011;8347;52.486;13.432;2023-04-12T03:07:35;14.20;;;6.07;;
16472;SDS011;8347;52.486;13.432;2023-04-12T03:10:21;13.60;;;5.07;;
16472;SDS011;8347;52.486;13.432;2023-04-12T03:13:20;9.20;;;5.00;;
16472;SDS011;8347;52.486;13.432;2023-04-12T03:16:19;5.47;;;3.95;;
16472;SDS011;8347;52.486;13.432;2023-04-12T03:19:10;6.63;;;3.97;;
16472;SDS011;8347;52.486;13.432;2023-04-12T03:21:58;5.07;;;3.67;;
16472;SDS011;8347;52.486;13.432;2023-04-12T03:24:46;13.23;;;6.88;;
16472;SDS011;8347;52.486;13.432;2023-04-12T03:27:35;10.05;;;5.63;;
16472;SDS011;8347;52.486;13.432;2023-04-12T03:30:22;8.05;;;4.30;;
16472;SDS011;8347;52.486;13.432;2023-04-12T03:33:11;9.27;;;4.50;;
16472;SDS011;8347;52.486;13.432;2023-04-12T03:35:58;5.95;;;3.92;;
16472;SDS011;8347;52.486;13.432;2023-04-12T03:38:46;7.32;;;3.58;;
16472;SDS011;8347;52.486;13.432;2023-04-12T03:41:32;10.38;;;4.25;;
16472;SDS011;8347;52.486;13.432;2023-04-12T03:44:22;7.30;;;3.88;;
16472;SDS011;8347;52.486;13.432;2023-04-12T03:47:12;6.43;;;3.67;;
16472;SDS011;8347;52.486;13.432;2023-04-12T03:50:02;7.10;;;4.20;;
16472;SDS011;8347;52.486;13.432;2023-04-12T03:52:54;8.68;;;3.40;;
16472;SDS011;8347;52.486;13.432;2023-04-12T03:55:46;4.57;;;3.95;;
16472;SDS011;8347;52.486;13.432;2023-04-12T03:58:33;5.93;;;3.72;;
16472;SDS011;8347;52.486;13.432;2023-04-12T04:01:20;7.35;;;3.80;;
16472;SDS011;8347;52.486;13.432;2023-04-12T04:04:08;6.10;;;4.03;;
16472;SDS011;8347;52.486;13.432;2023-04-12T04:06:55;10.75;;;5.03;;
16472;SDS011;8347;52.486;13.432;2023-04-12T04:09:42;12.38;;;4.68;;
16472;SDS011;8347;52.486;13.432;2023-04-12T04:12:30;4.60;;;3.90;;
16472;SDS011;8347;52.486;13.432;2023-04-12T04:15:17;9.25;;;4.15;;
16472;SDS011;8347;52.486;13.432;2023-04-12T04:18:03;7.40;;;3.63;;
16472;SDS011;8347;52.486;13.432;2023-04-12T04:20:50;5.93;;;3.90;;
16472;SDS011;8347;52.486;13.432;2023-04-12T04:23:37;9.27;;;4.18;;
16472;SDS011;8347;52.486;13.432;2023-04-12T04:26:24;6.40;;;4.38;;
16472;SDS011;8347;52.486;13.432;2023-04-12T04:29:20;6.18;;;3.85;;
16472;SDS011;8347;52.486;13.432;2023-04-12T04:32:06;6.85;;;3.72;;
16472;SDS011;8347;52.486;13.432;2023-04-12T04:34:56;7.25;;;4.15;;
16472;SDS011;8347;52.486;13.432;2023-04-12T04:37:45;7.57;;;4.15;;
16472;SDS011;8347;52.486;13.432;2023-04-12T04:40:35;10.05;;;4.50;;
16472;SDS011;8347;52.486;13.432;2023-04-12T04:43:23;11.23;;;5.55;;
16472;SDS011;8347;52.486;13.432;2023-04-12T04:46:13;7.60;;;3.78;;
16472;SDS011;8347;52.486;13.432;2023-04-12T04:49:01;9.52;;;4.85;;
16472;SDS011;8347;52.486;13.432;2023-04-12T04:51:48;10.48;;;4.18;;
16472;SDS011;8347;52.486;13.432;2023-04-12T04:54:36;7.07;;;4.35;;
16472;SDS011;8347;52.486;13.432;2023-04-12T04:57:22;6.78;;;3.78;;
16472;SDS011;8347;52.486;13.432;2023-04-12T05:00:10;8.55;;;4.65;;
16472;SDS011;8347;52.486;13.432;2023-04-12T05:03:01;9.07;;;4.75;;
16472;SDS011;8347;52.486;13.432;2023-04-12T05:05:48;7.13;;;3.90;;
16472;SDS011;8347;52.486;13.432;2023-04-12T05:08:34;6.43;;;4.28;;
16472;SDS011;8347;52.486;13.432;2023-04-12T05:11:22;6.35;;;4.10;;
16472;SDS011;8347;52.486;13.432;2023-04-12T05:14:09;7.03;;;4.55;;
16472;SDS011;8347;52.486;13.432;2023-04-12T05:16:56;7.18;;;4.80;;
16472;SDS011;8347;52.486;13.432;2023-04-12T05:19:43;6.63;;;4.32;;
16472;SDS011;8347;52.486;13.432;2023-04-12T05:22:29;9.25;;;5.00;;
16472;SDS011;8347;52.486;13.432;2023-04-12T05:25:16;12.55;;;5.28;;
16472;SDS011;8347;52.486;13.432;2023-04-12T05:28:13;8.10;;;5.10;;
16472;SDS011;8347;52.486;13.432;2023-04-12T05:31:01;7.35;;;5.18;;
16472;SDS011;8347;52.486;13.432;2023-04-12T05:33:55;6.82;;;5.00;;
16472;SDS011;8347;52.486;13.432;2023-04-12T05:36:46;12.68;;;5.18;;
16472;SDS011;8347;52.486;13.432;2023-04-12T05:39:33;8.57;;;4.68;;
16472;SDS011;8347;52.486;13.432;2023-04-12T05:42:20;6.55;;;3.70;;
16472;SDS011;8347;52.486;13.432;2023-04-12T05:45:06;7.72;;;4.15;;
16472;SDS011;8347;52.486;13.432;2023-04-12T05:47:54;4.95;;;4.32;;
16472;SDS011;8347;52.486;13.432;2023-04-12T05:50:48;7.40;;;4.55;;
16472;SDS011;8347;52.486;13.432;2023-04-12T05:53:35;5.57;;;3.35;;
16472;SDS011;8347;52.486;13.432;2023-04-12T05:56:24;7.72;;;3.95;;
16472;SDS011;8347;52.486;13.432;2023-04-12T05:59:11;12.07;;;4.75;;
16472;SDS011;8347;52.486;13.432;2023-04-12T06:01:58;6.82;;;3.42;;
16472;SDS011;8347;52.486;13.432;2023-04-12T06:04:46;10.35;;;4.88;;
16472;SDS011;8347;52.486;13.432;2023-04-12T06:07:33;13.65;;;7.22;;
16472;SDS011;8347;52.486;13.432;2023-04-12T06:10:21;13.50;;;5.10;;
16472;SDS011;8347;52.486;13.432;2023-04-12T06:13:11;13.93;;;6.22;;
16472;SDS011;8347;52.486;13.432;2023-04-12T06:16:01;9.10;;;5.03;;
16472;SDS011;8347;52.486;13.432;2023-04-12T06:18:47;11.38;;;4.88;;
16472;SDS011;8347;52.486;13.432;2023-04-12T06:21:34;9.43;;;4.40;;
16472;SDS011;8347;52.486;13.432;2023-04-12T06:24:20;7.80;;;4.78;;
16472;SDS011;8347;52.486;13.432;2023-04-12T06:27:07;9.05;;;4.25;;
16472;SDS011;8347;52.486;13.432;2023-04-12T06:29:54;6.30;;;3.58;;
16472;SDS011;8347;52.486;13.432;2023-04-12T06:32:41;7.80;;;4.20;;
16472;SDS011;8347;52.486;13.432;2023-04-12T06:35:27;6.10;;;3.55;;
16472;SDS011;8347;52.486;13.432;2023-04-12T06:38:15;7.57;;;3.42;;
16472;SDS011;8347;52.486;13.432;2023-04-12T06:41:02;4.82;;;2.75;;
16472;SDS011;8347;52.486;13.432;2023-04-12T06:43:49;5.10;;;3.53;;
16472;SDS011;8347;52.486;13.432;2023-04-12T06:46:36;6.03;;;3.55;;
16472;SDS011;8347;52.486;13.432;2023-04-12T06:49:22;4.65;;;2.88;;
16472;SDS011;8347;52.486;13.432;2023-04-12T06:52:09;11.55;;;3.70;;
16472;SDS011;8347;52.486;13.432;2023-04-12T06:54:55;7.80;;;3.65;;
16472;SDS011;8347;52.486;13.432;2023-04-12T06:57:43;8.38;;;3.38;;
16472;SDS011;8347;52.486;13.432;2023-04-12T07:00:30;10.27;;;3.35;;
16472;SDS011;8347;52.486;13.432;2023-04-12T07:03:17;6.55;;;3.28;;
16472;SDS011;8347;52.486;13.432;2023-04-12T07:06:04;9.77;;;3.83;;
16472;SDS011;8347;52.486;13.432;2023-04-12T07:08:50;7.50;;;3.55;;
16472;SDS011;8347;52.486;13.432;2023-04-12T07:11:37;10.77;;;3.95;;
16472;SDS011;8347;52.486;13.432;2023-04-12T07:14:24;9.85;;;4.30;;
16472;SDS011;8347;52.486;13.432;2023-04-12T07:17:11;5.63;;;3.10;;
16472;SDS011;8347;52.486;13.432;2023-04-12T07:19:57;8.82;;;3.47;;
16472;SDS011;8347;52.486;13.432;2023-04-12T07:22:44;6.80;;;4.40;;
16472;SDS011;8347;52.486;13.432;2023-04-12T07:25:30;4.82;;;2.92;;
16472;SDS011;8347;52.486;13.432;2023-04-12T07:28:17;7.00;;;3.15;;
16472;SDS011;8347;52.486;13.432;2023-04-12T07:31:05;5.97;;;3.80;;
16472;SDS011;8347;52.486;13.432;2023-04-12T07:33:52;4.07;;;2.70;;
16472;SDS011;8347;52.486;13.432;2023-04-12T07:36:39;6.75;;;2.97;;
16472;SDS011;8347;52.486;13.432;2023-04-12T07:39:25;5.30;;;2.55;;
16472;SDS011;8347;52.486;13.432;2023-04-12T07:42:12;3.75;;;2.55;;
16472;SDS011;8347;52.486;13.432;2023-04-12T07:44:58;7.78;;;2.50;;
16472;SDS011;8347;52.486;13.432;2023-04-12T07:47:45;8.55;;;3.10;;
16472;SDS011;8347;52.486;13.432;2023-04-12T07:50:32;4.53;;;1.80;;
16472;SDS011;8347;52.486;13.432;2023-04-12T07:53:23;2.53;;;1.42;;
16472;SDS011;8347;52.486;13.432;2023-04-12T07:56:11;7.38;;;1.75;;
16472;SDS011;8347;52.486;13.432;2023-04-12T07:58:57;5.93;;;2.20;;
16472;SDS011;8347;52.486;13.432;2023-04-12T08:01:44;5.97;;;1.75;;
16472;SDS011;8347;52.486;13.432;2023-04-12T08:04:31;5.22;;;1.30;;
16472;SDS011;8347;52.486;13.432;2023-04-12T08:07:17;7.45;;;2.10;;
16472;SDS011;8347;52.486;13.432;2023-04-12T08:10:04;7.95;;;1.50;;
16472;SDS011;8347;52.486;13.432;2023-04-12T08:12:51;5.88;;;1.92;;
16472;SDS011;8347;52.486;13.432;2023-04-12T08:15:37;5.28;;;2.25;;
16472;SDS011;8347;52.486;13.432;2023-04-12T08:18:24;4.20;;;1.75;;
16472;SDS011;8347;52.486;13.432;2023-04-12T08:21:10;4.53;;;1.95;;
16472;SDS011;8347;52.486;13.432;2023-04-12T08:23:57;2.85;;;1.65;;
16472;SDS011;8347;52.486;13.432;2023-04-12T08:26:44;2.95;;;1.17;;
16472;SDS011;8347;52.486;13.432;2023-04-12T08:29:30;3.80;;;1.58;;
16472;SDS011;8347;52.486;13.432;2023-04-12T08:32:19;1.80;;;1.23;;
16472;SDS011;8347;52.486;13.432;2023-04-12T08:35:06;8.35;;;1.27;;
16472;SDS011;8347;52.486;13.432;2023-04-12T08:37:53;4.57;;;1.30;;
16472;SDS011;8347;52.486;13.432;2023-04-12T08:40:40;3.60;;;1.30;;
16472;SDS011;8347;52.486;13.432;2023-04-12T08:43:28;5.30;;;1.10;;
16472;SDS011;8347;52.486;13.432;2023-04-12T08:46:15;4.18;;;1.30;;
16472;SDS011;8347;52.486;13.432;2023-04-12T08:49:02;3.85;;;1.10;;
16472;SDS011;8347;52.486;13.432;2023-04-12T08:51:49;2.65;;;1.30;;
16472;SDS011;8347;52.486;13.432;2023-04-12T08:54:37;6.32;;;1.70;;
16472;SDS011;8347;52.486;13.432;2023-04-12T08:57:23;4.30;;;1.50;;
16472;SDS011;8347;52.486;13.432;2023-04-12T09:00:10;4.53;;;1.63;;
16472;SDS011;8347;52.486;13.432;2023-04-12T09:02:59;4.10;;;1.63;;
16472;SDS011;8347;52.486;13.432;2023-04-12T09:05:45;5.97;;;1.73;;
16472;SDS011;8347;52.486;13.432;2023-04-12T09:08:32;6.15;;;1.40;;
16472;SDS011;8347;52.486;13.432;2023-04-12T09:11:28;2.45;;;1.00;;
16472;SDS011;8347;52.486;13.432;2023-04-12T09:14:22;4.32;;;1.42;;
16472;SDS011;8347;52.486;13.432;2023-04-12T09:17:24;5.68;;;1.35;;
16472;SDS011;8347;52.486;13.432;2023-04-12T09:23:00;6.38;;;1.92;;
16472;SDS011;8347;52.486;13.432;2023-04-12T09:25:47;3.72;;;1.75;;
16472;SDS011;8347;52.486;13.432;2023-04-12T09:28:36;2.30;;;1.15;;
16472;SDS011;8347;52.486;13.432;2023-04-12T09:31:29;4.32;;;1.45;;
16472;SDS011;8347;52.486;13.432;2023-04-12T09:34:16;7.97;;;2.10;;
16472;SDS011;8347;52.486;13.432;2023-04-12T09:37:15;6.07;;;1.83;;
16472;SDS011;8347;52.486;13.432;2023-04-12T09:40:03;5.03;;;2.00;;
16472;SDS011;8347;52.486;13.432;2023-04-12T09:42:51;4.40;;;2.13;;
16472;SDS011;8347;52.486;13.432;2023-04-12T09:45:38;10.73;;;2.30;;
16472;SDS011;8347;52.486;13.432;2023-04-12T09:48:24;3.38;;;1.35;;
16472;SDS011;8347;52.486;13.432;2023-04-12T09:51:11;3.80;;;1.38;;
16472;SDS011;8347;52.486;13.432;2023-04-12T09:54:00;1.65;;;1.20;;
16472;SDS011;8347;52.486;13.432;2023-04-12T09:56:47;5.75;;;1.95;;
16472;SDS011;8347;52.486;13.432;2023-04-12T09:59:40;3.92;;;1.33;;
16472;SDS011;8347;52.486;13.432;2023-04-12T10:02:26;7.32;;;1.70;;
16472;SDS011;8347;52.486;13.432;2023-04-12T10:05:14;5.75;;;1.45;;
16472;SDS011;8347;52.486;13.432;2023-04-12T10:08:01;4.03;;;1.33;;
16472;SDS011;8347;52.486;13.432;2023-04-12T10:10:52;5.07;;;1.40;;
16472;SDS011;8347;52.486;13.432;2023-04-12T10:13:39;7.00;;;1.55;;
16472;SDS011;8347;52.486;13.432;2023-04-12T10:16:26;4.97;;;1.58;;
16472;SDS011;8347;52.486;13.432;2023-04-12T10:19:12;6.32;;;1.70;;
16472;SDS011;8347;52.486;13.432;2023-04-12T10:21:59;2.83;;;1.20;;
16472;SDS011;8347;52.486;13.432;2023-04-12T10:24:46;5.80;;;1.10;;
16472;SDS011;8347;52.486;13.432;2023-04-12T10:27:33;4.70;;;1.23;;
16472;SDS011;8347;52.486;13.432;2023-04-12T10:35:55;4.45;;;1.63;;
16472;SDS011;8347;52.486;13.432;2023-04-12T10:38:50;7.68;;;1.27;;
16472;SDS011;8347;52.486;13.432;2023-04-12T10:48:05;4.30;;;1.67;;
16472;SDS011;8347;52.486;13.432;2023-04-12T10:51:10;3.80;;;1.17;;
16472;SDS011;8347;52.486;13.432;2023-04-12T10:56:55;4.22;;;1.27;;
16472;SDS011;8347;52.486;13.432;2023-04-12T10:59:54;7.22;;;1.75;;
16472;SDS011;8347;52.486;13.432;2023-04-12T11:06:00;6.45;;;1.67;;
16472;SDS011;8347;52.486;13.432;2023-04-12T11:09:20;4.20;;;1.10;;
16472;SDS011;8347;52.486;13.432;2023-04-12T11:12:11;5.03;;;1.58;;
16472;SDS011;8347;52.486;13.432;2023-04-12T11:14:58;5.20;;;1.42;;
16472;SDS011;8347;52.486;13.432;2023-04-12T11:17:53;6.22;;;1.65;;
16472;SDS011;8347;52.486;13.432;2023-04-12T11:20:40;13.23;;;2.95;;
16472;SDS011;8347;52.486;13.432;2023-04-12T11:23:26;3.30;;;1.20;;
16472;SDS011;8347;52.486;13.432;2023-04-12T11:26:18;1.98;;;1.10;;
16472;SDS011;8347;52.486;13.432;2023-04-12T11:29:06;1.95;;;1.25;;
16472;SDS011;8347;52.486;13.432;2023-04-12T11:31:53;3.28;;;1.20;;
16472;SDS011;8347;52.486;13.432;2023-04-12T11:34:41;3.60;;;1.67;;
16472;SDS011;8347;52.486;13.432;2023-04-12T11:37:29;6.40;;;1.60;;
16472;SDS011;8347;52.486;13.432;2023-04-12T11:40:16;3.92;;;1.15;;
16472;SDS011;8347;52.486;13.432;2023-04-12T11:43:02;4.72;;;1.40;;
16472;SDS011;8347;52.486;13.432;2023-04-12T11:45:54;8.57;;;1.63;;
16472;SDS011;8347;52.486;13.432;2023-04-12T11:48:43;6.45;;;1.45;;
16472;SDS011;8347;52.486;13.432;2023-04-12T11:51:30;5.25;;;1.50;;
16472;SDS011;8347;52.486;13.432;2023-04-12T11:54:17;3.10;;;1.17;;
16472;SDS011;8347;52.486;13.432;2023-04-12T11:57:04;5.18;;;1.80;;
16472;SDS011;8347;52.486;13.432;2023-04-12T11:59:51;2.60;;;1.00;;
16472;SDS011;8347;52.486;13.432;2023-04-12T12:02:38;5.03;;;1.30;;
16472;SDS011;8347;52.486;13.432;2023-04-12T12:05:24;6.40;;;1.30;;
16472;SDS011;8347;52.486;13.432;2023-04-12T12:08:12;3.35;;;1.05;;
16472;SDS011;8347;52.486;13.432;2023-04-12T12:10:59;1.65;;;0.90;;
16472;SDS011;8347;52.486;13.432;2023-04-12T12:13:46;3.95;;;0.88;;
16472;SDS011;8347;52.486;13.432;2023-04-12T12:16:34;8.80;;;1.25;;
16472;SDS011;8347;52.486;13.432;2023-04-12T12:19:25;1.98;;;1.00;;
16472;SDS011;8347;52.486;13.432;2023-04-12T12:22:16;6.72;;;1.52;;
16472;SDS011;8347;52.486;13.432;2023-04-12T12:25:03;2.40;;;1.30;;
16472;SDS011;8347;52.486;13.432;2023-04-12T12:27:55;5.32;;;1.60;;
16472;SDS011;8347;52.486;13.432;2023-04-12T12:30:42;5.65;;;1.45;;
16472;SDS011;8347;52.486;13.432;2023-04-12T12:33:35;6.25;;;1.38;;
16472;SDS011;8347;52.486;13.432;2023-04-12T12:36:28;7.07;;;1.73;;
16472;SDS011;8347;52.486;13.432;2023-04-12T12:39:16;4.00;;;1.33;;
16472;SDS011;8347;52.486;13.432;2023-04-12T12:42:03;4.32;;;1.83;;
16472;SDS011;8347;52.486;13.432;2023-04-12T12:44:51;4.30;;;1.38;;
16472;SDS011;8347;52.486;13.432;2023-04-12T12:47:53;5.53;;;1.50;;
16472;SDS011;8347;52.486;13.432;2023-04-12T12:50:40;6.82;;;1.65;;
16472;SDS011;8347;52.486;13.432;2023-04-12T12:53:27;35.05;;;3.90;;
16472;SDS011;8347;52.486;13.432;2023-04-12T12:56:14;5.13;;;1.65;;
16472;SDS011;8347;52.486;13.432;2023-04-12T12:59:01;7.65;;;1.85;;
16472;SDS011;8347;52.486;13.432;2023-04-12T13:01:47;8.73;;;1.85;;
16472;SDS011;8347;52.486;13.432;2023-04-12T13:04:34;7.50;;;1.50;;
16472;SDS011;8347;52.486;13.432;2023-04-12T13:07:20;22.02;;;3.45;;
16472;SDS011;8347;52.486;13.432;2023-04-12T13:10:07;5.00;;;1.15;;
16472;SDS011;8347;52.486;13.432;2023-04-12T13:12:54;6.35;;;2.15;;
16472;SDS011;8347;52.486;13.432;2023-04-12T13:15:40;6.47;;;1.77;;
16472;SDS011;8347;52.486;13.432;2023-04-12T13:18:27;6.90;;;1.38;;
16472;SDS011;8347;52.486;13.432;2023-04-12T13:21:14;5.30;;;1.30;;
16472;SDS011;8347;52.486;13.432;2023-04-12T13:24:01;4.20;;;1.15;;
16472;SDS011;8347;52.486;13.432;2023-04-12T13:26:47;4.80;;;1.63;;
16472;SDS011;8347;52.486;13.432;2023-04-12T13:29:34;5.05;;;2.05;;
16472;SDS011;8347;52.486;13.432;2023-04-12T13:32:21;8.85;;;2.80;;
16472;SDS011;8347;52.486;13.432;2023-04-12T13:35:08;3.33;;;1.58;;
16472;SDS011;8347;52.486;13.432;2023-04-12T13:37:55;4.03;;;1.13;;
16472;SDS011;8347;52.486;13.432;2023-04-12T13:40:41;7.18;;;2.08;;
16472;SDS011;8347;52.486;13.432;2023-04-12T13:43:28;4.55;;;2.03;;
16472;SDS011;8347;52.486;13.432;2023-04-12T13:46:15;7.70;;;4.13;;
16472;SDS011;8347;52.486;13.432;2023-04-12T13:49:01;6.80;;;2.00;;
16472;SDS011;8347;52.486;13.432;2023-04-12T13:51:48;6.43;;;1.95;;
16472;SDS011;8347;52.486;13.432;2023-04-12T13:54:35;4.93;;;2.25;;
16472;SDS011;8347;52.486;13.432;2023-04-12T13:57:21;2.22;;;1.40;;
16472;SDS011;8347;52.486;13.432;2023-04-12T14:00:08;5.28;;;1.60;;
16472;SDS011;8347;52.486;13.432;2023-04-12T14:02:56;4.25;;;1.42;;
16472;SDS011;8347;52.486;13.432;2023-04-12T14:05:42;4.22;;;1.65;;
16472;SDS011;8347;52.486;13.432;2023-04-12T14:08:29;4.53;;;1.48;;
16472;SDS011;8347;52.486;13.432;2023-04-12T14:11:16;4.40;;;1.75;;
16472;SDS011;8347;52.486;13.432;2023-04-12T14:14:02;4.07;;;1.65;;
16472;SDS011;8347;52.486;13.432;2023-04-12T14:16:50;4.22;;;1.40;;
16472;SDS011;8347;52.486;13.432;2023-04-12T14:19:38;5.72;;;2.10;;
16472;SDS011;8347;52.486;13.432;2023-04-12T14:22:25;6.43;;;1.77;;
16472;SDS011;8347;52.486;13.432;2023-04-12T14:25:11;3.72;;;1.40;;
16472;SDS011;8347;52.486;13.432;2023-04-12T14:27:58;5.93;;;2.08;;
16472;SDS011;8347;52.486;13.432;2023-04-12T14:30:45;3.90;;;1.70;;
16472;SDS011;8347;52.486;13.432;2023-04-12T14:33:31;6.50;;;2.13;;
16472;SDS011;8347;52.486;13.432;2023-04-12T14:36:18;4.47;;;2.03;;
16472;SDS011;8347;52.486;13.432;2023-04-12T14:39:05;5.65;;;1.90;;
16472;SDS011;8347;52.486;13.432;2023-04-12T14:41:52;7.15;;;1.63;;
16472;SDS011;8347;52.486;13.432;2023-04-12T14:44:38;2.50;;;1.92;;
16472;SDS011;8347;52.486;13.432;2023-04-12T14:47:25;5.43;;;1.77;;
16472;SDS011;8347;52.486;13.432;2023-04-12T14:50:12;4.43;;;1.73;;
16472;SDS011;8347;52.486;13.432;2023-04-12T14:52:58;3.95;;;1.85;;
16472;SDS011;8347;52.486;13.432;2023-04-12T14:55:45;5.03;;;1.30;;
16472;SDS011;8347;52.486;13.432;2023-04-12T14:58:32;3.10;;;1.27;;
16472;SDS011;8347;52.486;13.432;2023-04-12T15:01:20;2.75;;;1.40;;
16472;SDS011;8347;52.486;13.432;2023-04-12T15:04:07;5.60;;;3.67;;
16472;SDS011;8347;52.486;13.432;2023-04-12T15:06:54;3.45;;;1.40;;
16472;SDS011;8347;52.486;13.432;2023-04-12T15:09:41;4.57;;;1.42;;
16472;SDS011;8347;52.486;13.432;2023-04-12T15:12:30;5.05;;;1.80;;
16472;SDS011;8347;52.486;13.432;2023-04-12T15:15:22;2.95;;;1.63;;
16472;SDS011;8347;52.486;13.432;2023-04-12T15:18:09;4.85;;;1.92;;
16472;SDS011;8347;52.486;13.432;2023-04-12T15:20:56;3.70;;;1.40;;
16472;SDS011;8347;52.486;13.432;2023-04-12T15:23:44;3.78;;;1.88;;
16472;SDS011;8347;52.486;13.432;2023-04-12T15:26:32;5.75;;;1.90;;
16472;SDS011;8347;52.486;13.432;2023-04-12T15:29:21;2.17;;;1.42;;
16472;SDS011;8347;52.486;13.432;2023-04-12T15:32:09;6.45;;;2.28;;
16472;SDS011;8347;52.486;13.432;2023-04-12T15:34:55;5.28;;;2.30;;
16472;SDS011;8347;52.486;13.432;2023-04-12T15:37:42;6.70;;;2.10;;
16472;SDS011;8347;52.486;13.432;2023-04-12T15:40:29;7.88;;;3.60;;
16472;SDS011;8347;52.486;13.432;2023-04-12T15:43:15;6.35;;;2.45;;
16472;SDS011;8347;52.486;13.432;2023-04-12T15:46:02;5.35;;;2.33;;
16472;SDS011;8347;52.486;13.432;2023-04-12T15:48:49;4.15;;;2.80;;
16472;SDS011;8347;52.486;13.432;2023-04-12T15:51:36;5.97;;;2.10;;
16472;SDS011;8347;52.486;13.432;2023-04-12T15:54:22;3.80;;;2.35;;
16472;SDS011;8347;52.486;13.432;2023-04-12T15:57:09;5.40;;;2.15;;
16472;SDS011;8347;52.486;13.432;2023-04-12T15:59:56;7.38;;;4.03;;
16472;SDS011;8347;52.486;13.432;2023-04-12T16:02:44;7.20;;;3.70;;
16472;SDS011;8347;52.486;13.432;2023-04-12T16:05:34;6.68;;;3.10;;
16472;SDS011;8347;52.486;13.432;2023-04-12T16:08:20;5.13;;;3.00;;
16472;SDS011;8347;52.486;13.432;2023-04-12T16:11:07;6.65;;;2.60;;
16472;SDS011;8347;52.486;13.432;2023-04-12T16:13:56;7.88;;;3.00;;
16472;SDS011;8347;52.486;13.432;2023-04-12T16:16:43;8.30;;;4.63;;
16472;SDS011;8347;52.486;13.432;2023-04-12T16:19:31;8.13;;;4.32;;
16472;SDS011;8347;52.486;13.432;2023-04-12T16:22:18;7.45;;;3.75;;
16472;SDS011;8347;52.486;13.432;2023-04-12T16:25:04;7.47;;;4.32;;
16472;SDS011;8347;52.486;13.432;2023-04-12T16:27:51;6.03;;;3.15;;
16472;SDS011;8347;52.486;13.432;2023-04-12T16:30:38;10.73;;;4.13;;
16472;SDS011;8347;52.486;13.432;2023-04-12T16:33:25;10.95;;;4.63;;
16472;SDS011;8347;52.486;13.432;2023-04-12T16:36:12;6.95;;;4.32;;
16472;SDS011;8347;52.486;13.432;2023-04-12T16:39:00;8.82;;;4.07;;
16472;SDS011;8347;52.486;13.432;2023-04-12T16:41:47;7.38;;;3.92;;
16472;SDS011;8347;52.486;13.432;2023-04-12T16:44:34;6.90;;;3.53;;
16472;SDS011;8347;52.486;13.432;2023-04-12T16:47:21;5.05;;;3.75;;
16472;SDS011;8347;52.486;13.432;2023-04-12T16:50:07;12.27;;;5.22;;
16472;SDS011;8347;52.486;13.432;2023-04-12T16:52:54;5.13;;;3.80;;
16472;SDS011;8347;52.486;13.432;2023-04-12T16:55:41;8.13;;;3.88;;
16472;SDS011;8347;52.486;13.432;2023-04-12T16:58:28;5.57;;;3.80;;
16472;SDS011;8347;52.486;13.432;2023-04-12T17:01:15;12.40;;;5.40;;
16472;SDS011;8347;52.486;13.432;2023-04-12T17:04:02;8.07;;;4.45;;
16472;SDS011;8347;52.486;13.432;2023-04-12T17:06:48;6.72;;;4.28;;
16472;SDS011;8347;52.486;13.432;2023-04-12T17:09:35;6.88;;;4.10;;
16472;SDS011;8347;52.486;13.432;2023-04-12T17:12:22;5.05;;;3.38;;
16472;SDS011;8347;52.486;13.432;2023-04-12T17:15:08;6.70;;;3.85;;
16472;SDS011;8347;52.486;13.432;2023-04-12T17:18:00;8.82;;;6.72;;
16472;SDS011;8347;52.486;13.432;2023-04-12T17:20:47;6.75;;;4.20;;
16472;SDS011;8347;52.486;13.432;2023-04-12T17:23:34;6.47;;;3.53;;
16472;SDS011;8347;52.486;13.432;2023-04-12T17:26:23;6.28;;;2.65;;